The Eastern Iowa Airport
KCID : now visible

Airfield :











YOU CAN JOIN US ON...

 
LOGIN :

Register | Disclaimer

   EN    FR    IT 

 









Legend :    VFR   Marginal VFR   IFR   Intensive IFR   Very Intensive IFR
Visi :
Ceiling :
>= 8 km
>= 3000ft
5 to 8 km
1000 to 3000 ft
1500m to 5 km
500 to 1000 ft
800 to 1500m
200 to 500 ft
< 800m
< 200 ft
Symbols :   Thunderstorms  Fog  Heavy snow  Heavy precipitations  Wind > 20 kt






- Airport Elevation : 869 ft
- IATA code : CID


KCID - The Eastern Iowa

CURRENT METAR :
  • 221152Z 35011KT 10SM OVC014 M04/M07 A3019 RMK AO2 SLP234 70001 T10441067 11033 21044 53007

EXPIRED METARs :
  • 221052Z 34010KT 10SM OVC014 M04/M07 A3018 RMK AO2 SLP231 T10441072
  • 220952Z AUTO 34013KT 10SM OVC013 M04/M07 A3017 RMK AO2 SLP225 T10441067

TAF KCID
Valid from the 22 at 12:00 until the 23 at 12:00 UTC


221139Z 2212/2312 34010KT P6SM OVC014
FM221700 35005KT P6SM SCT025
FM230500 20005KT P6SM SCT150



MET'MAP, your aeronautical weather chart ! - Copyright ORBIFLY December 2007 - Disclaimer

ORBIFLY MET'MAP TEAM :

Programming & Development : Alexandra Zaïnal
Concept & Development : Baudouin d'Aumeries
Co-Development & Prog : Marc-Olivier Méhu
Technical & hardware support : Manuel Goepfert

Contact : metmap@orbifly.com




SOURCES & CREDITS :

   NOAA       Earth
Advisory